<?xml version="1.0" encoding="UTF-8" standalone="no" ?>
<gpx xmlns="http://www.topografix.com/GPX/1/1" xmlns:xsi="http://www.w3.org/2001/XMLSchema-instance" xsi:schemaLocation="http://www.topografix.com/GPX/1/1 http://www.topografix.com/GPX/1/1/gpx.xsd" version="1.1" creator="VisuGPX - https://www.visugpx.com">
  <metadata>
    <name>2022 10 17 randonnée autour des Salins de Frontignan</name>
    <desc><![CDATA[2022 10 17 randonnée autour des Salins de Frontignan]]></desc>
  </metadata>
  <trk>
    <name><![CDATA[2022 10 17 randonnée autour des Salins de Frontignan]]></name>
    <trkseg>
      <trkpt lat="43.4454" lon="3.75946">
        <ele>64</ele>
        <time>2022-10-17T14:00:32+02:00</time>
      </trkpt>
      <trkpt lat="43.44539" lon="3.76008">
        <ele>40</ele>
        <time>2022-10-17T14:01:25+02:00</time>
      </trkpt>
      <trkpt lat="43.44526" lon="3.76034">
        <ele>40</ele>
        <time>2022-10-17T14:01:44+02:00</time>
      </trkpt>
      <trkpt lat="43.44527" lon="3.76065">
        <ele>30</ele>
        <time>2022-10-17T14:02:14+02:00</time>
      </trkpt>
      <trkpt lat="43.44525" lon="3.76096">
        <ele>33</ele>
        <time>2022-10-17T14:02:31+02:00</time>
      </trkpt>
      <trkpt lat="43.44522" lon="3.76127">
        <ele>34</ele>
        <time>2022-10-17T14:02:47+02:00</time>
      </trkpt>
      <trkpt lat="43.44519" lon="3.76158">
        <ele>33</ele>
        <time>2022-10-17T14:03:04+02:00</time>
      </trkpt>
      <trkpt lat="43.44518" lon="3.76191">
        <ele>35</ele>
        <time>2022-10-17T14:03:22+02:00</time>
      </trkpt>
      <trkpt lat="43.44516" lon="3.76223">
        <ele>34</ele>
        <time>2022-10-17T14:03:41+02:00</time>
      </trkpt>
      <trkpt lat="43.44515" lon="3.76255">
        <ele>35</ele>
        <time>2022-10-17T14:03:59+02:00</time>
      </trkpt>
      <trkpt lat="43.44513" lon="3.76287">
        <ele>32</ele>
        <time>2022-10-17T14:04:17+02:00</time>
      </trkpt>
      <trkpt lat="43.44517" lon="3.76318">
        <ele>33</ele>
        <time>2022-10-17T14:04:39+02:00</time>
      </trkpt>
      <trkpt lat="43.44516" lon="3.7635">
        <ele>31</ele>
        <time>2022-10-17T14:04:57+02:00</time>
      </trkpt>
      <trkpt lat="43.44537" lon="3.76363">
        <ele>39</ele>
        <time>2022-10-17T14:05:21+02:00</time>
      </trkpt>
      <trkpt lat="43.44558" lon="3.76354">
        <ele>44</ele>
        <time>2022-10-17T14:05:41+02:00</time>
      </trkpt>
      <trkpt lat="43.4458" lon="3.76345">
        <ele>40</ele>
        <time>2022-10-17T14:06:02+02:00</time>
      </trkpt>
      <trkpt lat="43.44602" lon="3.76336">
        <ele>39</ele>
        <time>2022-10-17T14:06:20+02:00</time>
      </trkpt>
      <trkpt lat="43.44621" lon="3.76356">
        <ele>37</ele>
        <time>2022-10-17T14:07:09+02:00</time>
      </trkpt>
      <trkpt lat="43.44643" lon="3.76412">
        <ele>35</ele>
        <time>2022-10-17T14:07:45+02:00</time>
      </trkpt>
      <trkpt lat="43.44653" lon="3.7644">
        <ele>30</ele>
        <time>2022-10-17T14:08:05+02:00</time>
      </trkpt>
      <trkpt lat="43.44664" lon="3.76468">
        <ele>31</ele>
        <time>2022-10-17T14:08:23+02:00</time>
      </trkpt>
      <trkpt lat="43.44674" lon="3.76497">
        <ele>32</ele>
        <time>2022-10-17T14:08:42+02:00</time>
      </trkpt>
      <trkpt lat="43.44686" lon="3.76526">
        <ele>33</ele>
        <time>2022-10-17T14:09:03+02:00</time>
      </trkpt>
      <trkpt lat="43.44697" lon="3.76554">
        <ele>30</ele>
        <time>2022-10-17T14:09:23+02:00</time>
      </trkpt>
      <trkpt lat="43.44707" lon="3.76583">
        <ele>31</ele>
        <time>2022-10-17T14:09:43+02:00</time>
      </trkpt>
      <trkpt lat="43.44719" lon="3.76611">
        <ele>32</ele>
        <time>2022-10-17T14:10:02+02:00</time>
      </trkpt>
      <trkpt lat="43.44729" lon="3.76639">
        <ele>33</ele>
        <time>2022-10-17T14:10:21+02:00</time>
      </trkpt>
      <trkpt lat="43.4474" lon="3.76668">
        <ele>32</ele>
        <time>2022-10-17T14:10:41+02:00</time>
      </trkpt>
      <trkpt lat="43.44749" lon="3.76698">
        <ele>30</ele>
        <time>2022-10-17T14:11:01+02:00</time>
      </trkpt>
      <trkpt lat="43.4476" lon="3.76725">
        <ele>32</ele>
        <time>2022-10-17T14:11:19+02:00</time>
      </trkpt>
      <trkpt lat="43.44771" lon="3.76753">
        <ele>31</ele>
        <time>2022-10-17T14:11:35+02:00</time>
      </trkpt>
      <trkpt lat="43.44783" lon="3.76782">
        <ele>29</ele>
        <time>2022-10-17T14:11:56+02:00</time>
      </trkpt>
      <trkpt lat="43.44793" lon="3.7681">
        <ele>30</ele>
        <time>2022-10-17T14:12:15+02:00</time>
      </trkpt>
      <trkpt lat="43.44804" lon="3.76838">
        <ele>32</ele>
        <time>2022-10-17T14:12:33+02:00</time>
      </trkpt>
      <trkpt lat="43.44815" lon="3.76867">
        <ele>32</ele>
        <time>2022-10-17T14:12:52+02:00</time>
      </trkpt>
      <trkpt lat="43.44826" lon="3.76894">
        <ele>33</ele>
        <time>2022-10-17T14:13:11+02:00</time>
      </trkpt>
      <trkpt lat="43.44836" lon="3.76923">
        <ele>30</ele>
        <time>2022-10-17T14:13:29+02:00</time>
      </trkpt>
      <trkpt lat="43.4485" lon="3.76949">
        <ele>28</ele>
        <time>2022-10-17T14:13:49+02:00</time>
      </trkpt>
      <trkpt lat="43.44868" lon="3.77006">
        <ele>28</ele>
        <time>2022-10-17T14:14:29+02:00</time>
      </trkpt>
      <trkpt lat="43.44882" lon="3.77031">
        <ele>26</ele>
        <time>2022-10-17T14:14:47+02:00</time>
      </trkpt>
      <trkpt lat="43.44888" lon="3.77061">
        <ele>27</ele>
        <time>2022-10-17T14:15:04+02:00</time>
      </trkpt>
      <trkpt lat="43.44899" lon="3.77088">
        <ele>30</ele>
        <time>2022-10-17T14:15:25+02:00</time>
      </trkpt>
      <trkpt lat="43.4491" lon="3.77118">
        <ele>28</ele>
        <time>2022-10-17T14:15:43+02:00</time>
      </trkpt>
      <trkpt lat="43.44923" lon="3.77145">
        <ele>26</ele>
        <time>2022-10-17T14:16:04+02:00</time>
      </trkpt>
      <trkpt lat="43.44933" lon="3.77173">
        <ele>26</ele>
        <time>2022-10-17T14:16:22+02:00</time>
      </trkpt>
      <trkpt lat="43.44942" lon="3.77201">
        <ele>29</ele>
        <time>2022-10-17T14:16:40+02:00</time>
      </trkpt>
      <trkpt lat="43.44955" lon="3.77228">
        <ele>26</ele>
        <time>2022-10-17T14:16:58+02:00</time>
      </trkpt>
      <trkpt lat="43.44963" lon="3.77258">
        <ele>28</ele>
        <time>2022-10-17T14:17:20+02:00</time>
      </trkpt>
      <trkpt lat="43.44974" lon="3.77286">
        <ele>30</ele>
        <time>2022-10-17T14:17:40+02:00</time>
      </trkpt>
      <trkpt lat="43.44984" lon="3.77314">
        <ele>29</ele>
        <time>2022-10-17T14:18:02+02:00</time>
      </trkpt>
      <trkpt lat="43.44997" lon="3.77341">
        <ele>29</ele>
        <time>2022-10-17T14:18:21+02:00</time>
      </trkpt>
      <trkpt lat="43.45004" lon="3.7737">
        <ele>34</ele>
        <time>2022-10-17T14:18:37+02:00</time>
      </trkpt>
      <trkpt lat="43.45002" lon="3.77402">
        <ele>47</ele>
        <time>2022-10-17T14:18:48+02:00</time>
      </trkpt>
      <trkpt lat="43.45022" lon="3.77418">
        <ele>36</ele>
        <time>2022-10-17T14:19:09+02:00</time>
      </trkpt>
      <trkpt lat="43.45034" lon="3.77445">
        <ele>31</ele>
        <time>2022-10-17T14:19:28+02:00</time>
      </trkpt>
      <trkpt lat="43.45043" lon="3.77473">
        <ele>29</ele>
        <time>2022-10-17T14:19:47+02:00</time>
      </trkpt>
      <trkpt lat="43.45057" lon="3.77499">
        <ele>24</ele>
        <time>2022-10-17T14:20:08+02:00</time>
      </trkpt>
      <trkpt lat="43.45069" lon="3.77526">
        <ele>20</ele>
        <time>2022-10-17T14:20:29+02:00</time>
      </trkpt>
      <trkpt lat="43.45079" lon="3.77555">
        <ele>24</ele>
        <time>2022-10-17T14:20:46+02:00</time>
      </trkpt>
      <trkpt lat="43.45092" lon="3.77581">
        <ele>18</ele>
        <time>2022-10-17T14:21:04+02:00</time>
      </trkpt>
      <trkpt lat="43.451" lon="3.7761">
        <ele>22</ele>
        <time>2022-10-17T14:21:21+02:00</time>
      </trkpt>
      <trkpt lat="43.45112" lon="3.77639">
        <ele>25</ele>
        <time>2022-10-17T14:21:42+02:00</time>
      </trkpt>
      <trkpt lat="43.45124" lon="3.77667">
        <ele>28</ele>
        <time>2022-10-17T14:22:01+02:00</time>
      </trkpt>
      <trkpt lat="43.45134" lon="3.77696">
        <ele>28</ele>
        <time>2022-10-17T14:22:18+02:00</time>
      </trkpt>
      <trkpt lat="43.45143" lon="3.77725">
        <ele>30</ele>
        <time>2022-10-17T14:22:35+02:00</time>
      </trkpt>
      <trkpt lat="43.45156" lon="3.77752">
        <ele>31</ele>
        <time>2022-10-17T14:22:54+02:00</time>
      </trkpt>
      <trkpt lat="43.45169" lon="3.77778">
        <ele>31</ele>
        <time>2022-10-17T14:23:13+02:00</time>
      </trkpt>
      <trkpt lat="43.45177" lon="3.77809">
        <ele>32</ele>
        <time>2022-10-17T14:23:31+02:00</time>
      </trkpt>
      <trkpt lat="43.45193" lon="3.77832">
        <ele>27</ele>
        <time>2022-10-17T14:23:54+02:00</time>
      </trkpt>
      <trkpt lat="43.45212" lon="3.77851">
        <ele>32</ele>
        <time>2022-10-17T14:24:16+02:00</time>
      </trkpt>
      <trkpt lat="43.45235" lon="3.77859">
        <ele>40</ele>
        <time>2022-10-17T14:24:35+02:00</time>
      </trkpt>
      <trkpt lat="43.45257" lon="3.7787">
        <ele>48</ele>
        <time>2022-10-17T14:24:52+02:00</time>
      </trkpt>
      <trkpt lat="43.4528" lon="3.7787">
        <ele>45</ele>
        <time>2022-10-17T14:25:13+02:00</time>
      </trkpt>
      <trkpt lat="43.45303" lon="3.77872">
        <ele>43</ele>
        <time>2022-10-17T14:25:34+02:00</time>
      </trkpt>
      <trkpt lat="43.45331" lon="3.77866">
        <ele>48</ele>
        <time>2022-10-17T14:25:55+02:00</time>
      </trkpt>
      <trkpt lat="43.45348" lon="3.77846">
        <ele>53</ele>
        <time>2022-10-17T14:26:15+02:00</time>
      </trkpt>
      <trkpt lat="43.45366" lon="3.77824">
        <ele>53</ele>
        <time>2022-10-17T14:26:36+02:00</time>
      </trkpt>
      <trkpt lat="43.45381" lon="3.77799">
        <ele>49</ele>
        <time>2022-10-17T14:26:56+02:00</time>
      </trkpt>
      <trkpt lat="43.45397" lon="3.77776">
        <ele>49</ele>
        <time>2022-10-17T14:27:15+02:00</time>
      </trkpt>
      <trkpt lat="43.45416" lon="3.77756">
        <ele>50</ele>
        <time>2022-10-17T14:27:39+02:00</time>
      </trkpt>
      <trkpt lat="43.45434" lon="3.77738">
        <ele>48</ele>
        <time>2022-10-17T14:27:56+02:00</time>
      </trkpt>
      <trkpt lat="43.45453" lon="3.77719">
        <ele>51</ele>
        <time>2022-10-17T14:28:16+02:00</time>
      </trkpt>
      <trkpt lat="43.45475" lon="3.77713">
        <ele>50</ele>
        <time>2022-10-17T14:28:36+02:00</time>
      </trkpt>
      <trkpt lat="43.45498" lon="3.77704">
        <ele>47</ele>
        <time>2022-10-17T14:29:00+02:00</time>
      </trkpt>
      <trkpt lat="43.45519" lon="3.77718">
        <ele>44</ele>
        <time>2022-10-17T14:29:18+02:00</time>
      </trkpt>
      <trkpt lat="43.45535" lon="3.77742">
        <ele>41</ele>
        <time>2022-10-17T14:29:37+02:00</time>
      </trkpt>
      <trkpt lat="43.45552" lon="3.77763">
        <ele>30</ele>
        <time>2022-10-17T14:30:01+02:00</time>
      </trkpt>
      <trkpt lat="43.45569" lon="3.77785">
        <ele>28</ele>
        <time>2022-10-17T14:30:18+02:00</time>
      </trkpt>
      <trkpt lat="43.45584" lon="3.77809">
        <ele>33</ele>
        <time>2022-10-17T14:30:36+02:00</time>
      </trkpt>
      <trkpt lat="43.456" lon="3.77832">
        <ele>36</ele>
        <time>2022-10-17T14:30:55+02:00</time>
      </trkpt>
      <trkpt lat="43.45617" lon="3.77853">
        <ele>40</ele>
        <time>2022-10-17T14:31:20+02:00</time>
      </trkpt>
      <trkpt lat="43.45634" lon="3.77832">
        <ele>47</ele>
        <time>2022-10-17T14:31:49+02:00</time>
      </trkpt>
      <trkpt lat="43.45649" lon="3.77808">
        <ele>45</ele>
        <time>2022-10-17T14:32:10+02:00</time>
      </trkpt>
      <trkpt lat="43.4566" lon="3.77781">
        <ele>45</ele>
        <time>2022-10-17T14:32:30+02:00</time>
      </trkpt>
      <trkpt lat="43.45673" lon="3.77754">
        <ele>53</ele>
        <time>2022-10-17T14:32:49+02:00</time>
      </trkpt>
      <trkpt lat="43.45675" lon="3.77722">
        <ele>46</ele>
        <time>2022-10-17T14:33:08+02:00</time>
      </trkpt>
      <trkpt lat="43.45683" lon="3.77693">
        <ele>48</ele>
        <time>2022-10-17T14:33:29+02:00</time>
      </trkpt>
      <trkpt lat="43.45689" lon="3.77663">
        <ele>50</ele>
        <time>2022-10-17T14:33:48+02:00</time>
      </trkpt>
      <trkpt lat="43.45691" lon="3.77631">
        <ele>47</ele>
        <time>2022-10-17T14:34:07+02:00</time>
      </trkpt>
      <trkpt lat="43.45692" lon="3.77599">
        <ele>47</ele>
        <time>2022-10-17T14:34:26+02:00</time>
      </trkpt>
      <trkpt lat="43.45696" lon="3.77567">
        <ele>44</ele>
        <time>2022-10-17T14:34:46+02:00</time>
      </trkpt>
      <trkpt lat="43.4571" lon="3.77542">
        <ele>45</ele>
        <time>2022-10-17T14:35:08+02:00</time>
      </trkpt>
      <trkpt lat="43.4573" lon="3.77525">
        <ele>48</ele>
        <time>2022-10-17T14:35:28+02:00</time>
      </trkpt>
      <trkpt lat="43.45741" lon="3.77466">
        <ele>47</ele>
        <time>2022-10-17T14:36:12+02:00</time>
      </trkpt>
      <trkpt lat="43.45729" lon="3.77437">
        <ele>42</ele>
        <time>2022-10-17T14:36:29+02:00</time>
      </trkpt>
      <trkpt lat="43.45718" lon="3.77408">
        <ele>43</ele>
        <time>2022-10-17T14:36:49+02:00</time>
      </trkpt>
      <trkpt lat="43.45709" lon="3.77378">
        <ele>42</ele>
        <time>2022-10-17T14:37:08+02:00</time>
      </trkpt>
      <trkpt lat="43.45699" lon="3.7735">
        <ele>40</ele>
        <time>2022-10-17T14:37:31+02:00</time>
      </trkpt>
      <trkpt lat="43.45689" lon="3.77321">
        <ele>44</ele>
        <time>2022-10-17T14:37:50+02:00</time>
      </trkpt>
      <trkpt lat="43.45677" lon="3.77294">
        <ele>43</ele>
        <time>2022-10-17T14:38:10+02:00</time>
      </trkpt>
      <trkpt lat="43.45688" lon="3.77264">
        <ele>45</ele>
        <time>2022-10-17T14:38:33+02:00</time>
      </trkpt>
      <trkpt lat="43.45703" lon="3.77241">
        <ele>46</ele>
        <time>2022-10-17T14:38:53+02:00</time>
      </trkpt>
      <trkpt lat="43.45718" lon="3.77219">
        <ele>49</ele>
        <time>2022-10-17T14:39:11+02:00</time>
      </trkpt>
      <trkpt lat="43.45733" lon="3.77193">
        <ele>48</ele>
        <time>2022-10-17T14:39:32+02:00</time>
      </trkpt>
      <trkpt lat="43.4575" lon="3.77171">
        <ele>50</ele>
        <time>2022-10-17T14:39:51+02:00</time>
      </trkpt>
      <trkpt lat="43.45767" lon="3.7715">
        <ele>49</ele>
        <time>2022-10-17T14:40:12+02:00</time>
      </trkpt>
      <trkpt lat="43.45779" lon="3.77123">
        <ele>44</ele>
        <time>2022-10-17T14:40:32+02:00</time>
      </trkpt>
      <trkpt lat="43.45797" lon="3.77103">
        <ele>47</ele>
        <time>2022-10-17T14:40:50+02:00</time>
      </trkpt>
      <trkpt lat="43.4581" lon="3.77078">
        <ele>43</ele>
        <time>2022-10-17T14:41:08+02:00</time>
      </trkpt>
      <trkpt lat="43.45827" lon="3.77056">
        <ele>43</ele>
        <time>2022-10-17T14:41:33+02:00</time>
      </trkpt>
      <trkpt lat="43.45844" lon="3.77033">
        <ele>45</ele>
        <time>2022-10-17T14:41:49+02:00</time>
      </trkpt>
      <trkpt lat="43.45862" lon="3.77015">
        <ele>43</ele>
        <time>2022-10-17T14:42:06+02:00</time>
      </trkpt>
      <trkpt lat="43.45877" lon="3.7699">
        <ele>47</ele>
        <time>2022-10-17T14:42:26+02:00</time>
      </trkpt>
      <trkpt lat="43.45894" lon="3.76969">
        <ele>50</ele>
        <time>2022-10-17T14:42:45+02:00</time>
      </trkpt>
      <trkpt lat="43.45908" lon="3.76945">
        <ele>48</ele>
        <time>2022-10-17T14:43:05+02:00</time>
      </trkpt>
      <trkpt lat="43.45925" lon="3.76923">
        <ele>47</ele>
        <time>2022-10-17T14:43:25+02:00</time>
      </trkpt>
      <trkpt lat="43.45944" lon="3.76907">
        <ele>49</ele>
        <time>2022-10-17T14:43:47+02:00</time>
      </trkpt>
      <trkpt lat="43.45967" lon="3.76904">
        <ele>50</ele>
        <time>2022-10-17T14:44:05+02:00</time>
      </trkpt>
      <trkpt lat="43.4599" lon="3.76901">
        <ele>48</ele>
        <time>2022-10-17T14:44:23+02:00</time>
      </trkpt>
      <trkpt lat="43.46012" lon="3.76892">
        <ele>47</ele>
        <time>2022-10-17T14:44:40+02:00</time>
      </trkpt>
      <trkpt lat="43.46035" lon="3.76892">
        <ele>45</ele>
        <time>2022-10-17T14:44:58+02:00</time>
      </trkpt>
      <trkpt lat="43.46058" lon="3.76891">
        <ele>43</ele>
        <time>2022-10-17T14:45:20+02:00</time>
      </trkpt>
      <trkpt lat="43.4608" lon="3.76884">
        <ele>45</ele>
        <time>2022-10-17T14:45:35+02:00</time>
      </trkpt>
      <trkpt lat="43.46103" lon="3.76876">
        <ele>46</ele>
        <time>2022-10-17T14:45:54+02:00</time>
      </trkpt>
      <trkpt lat="43.46125" lon="3.76869">
        <ele>47</ele>
        <time>2022-10-17T14:46:10+02:00</time>
      </trkpt>
      <trkpt lat="43.46147" lon="3.76863">
        <ele>47</ele>
        <time>2022-10-17T14:46:28+02:00</time>
      </trkpt>
      <trkpt lat="43.46168" lon="3.7685">
        <ele>46</ele>
        <time>2022-10-17T14:46:47+02:00</time>
      </trkpt>
      <trkpt lat="43.46155" lon="3.76823">
        <ele>38</ele>
        <time>2022-10-17T14:47:21+02:00</time>
      </trkpt>
      <trkpt lat="43.46132" lon="3.76817">
        <ele>37</ele>
        <time>2022-10-17T14:47:41+02:00</time>
      </trkpt>
      <trkpt lat="43.46111" lon="3.76805">
        <ele>37</ele>
        <time>2022-10-17T14:48:00+02:00</time>
      </trkpt>
      <trkpt lat="43.46087" lon="3.76799">
        <ele>37</ele>
        <time>2022-10-17T14:48:19+02:00</time>
      </trkpt>
      <trkpt lat="43.46068" lon="3.76781">
        <ele>38</ele>
        <time>2022-10-17T14:48:38+02:00</time>
      </trkpt>
      <trkpt lat="43.46047" lon="3.76768">
        <ele>39</ele>
        <time>2022-10-17T14:48:58+02:00</time>
      </trkpt>
      <trkpt lat="43.46028" lon="3.76751">
        <ele>39</ele>
        <time>2022-10-17T14:49:21+02:00</time>
      </trkpt>
      <trkpt lat="43.46008" lon="3.76734">
        <ele>38</ele>
        <time>2022-10-17T14:49:40+02:00</time>
      </trkpt>
      <trkpt lat="43.45987" lon="3.76721">
        <ele>38</ele>
        <time>2022-10-17T14:49:56+02:00</time>
      </trkpt>
      <trkpt lat="43.45965" lon="3.76709">
        <ele>39</ele>
        <time>2022-10-17T14:50:15+02:00</time>
      </trkpt>
      <trkpt lat="43.45947" lon="3.7669">
        <ele>39</ele>
        <time>2022-10-17T14:50:32+02:00</time>
      </trkpt>
      <trkpt lat="43.45919" lon="3.76677">
        <ele>51</ele>
        <time>2022-10-17T14:50:50+02:00</time>
      </trkpt>
      <trkpt lat="43.45901" lon="3.76657">
        <ele>37</ele>
        <time>2022-10-17T14:51:16+02:00</time>
      </trkpt>
      <trkpt lat="43.4588" lon="3.76646">
        <ele>38</ele>
        <time>2022-10-17T14:51:35+02:00</time>
      </trkpt>
      <trkpt lat="43.4586" lon="3.76627">
        <ele>39</ele>
        <time>2022-10-17T14:51:52+02:00</time>
      </trkpt>
      <trkpt lat="43.45839" lon="3.76613">
        <ele>39</ele>
        <time>2022-10-17T14:52:12+02:00</time>
      </trkpt>
      <trkpt lat="43.45819" lon="3.76599">
        <ele>38</ele>
        <time>2022-10-17T14:52:31+02:00</time>
      </trkpt>
      <trkpt lat="43.45799" lon="3.76582">
        <ele>40</ele>
        <time>2022-10-17T14:52:51+02:00</time>
      </trkpt>
      <trkpt lat="43.4578" lon="3.76565">
        <ele>39</ele>
        <time>2022-10-17T14:53:11+02:00</time>
      </trkpt>
      <trkpt lat="43.45759" lon="3.76551">
        <ele>37</ele>
        <time>2022-10-17T14:53:32+02:00</time>
      </trkpt>
      <trkpt lat="43.45739" lon="3.76536">
        <ele>38</ele>
        <time>2022-10-17T14:53:50+02:00</time>
      </trkpt>
      <trkpt lat="43.45718" lon="3.76524">
        <ele>41</ele>
        <time>2022-10-17T14:54:07+02:00</time>
      </trkpt>
      <trkpt lat="43.45695" lon="3.76528">
        <ele>44</ele>
        <time>2022-10-17T14:54:23+02:00</time>
      </trkpt>
      <trkpt lat="43.45673" lon="3.76533">
        <ele>44</ele>
        <time>2022-10-17T14:54:44+02:00</time>
      </trkpt>
      <trkpt lat="43.45649" lon="3.76536">
        <ele>41</ele>
        <time>2022-10-17T14:55:06+02:00</time>
      </trkpt>
      <trkpt lat="43.45626" lon="3.76529">
        <ele>39</ele>
        <time>2022-10-17T14:55:28+02:00</time>
      </trkpt>
      <trkpt lat="43.45603" lon="3.76526">
        <ele>37</ele>
        <time>2022-10-17T14:55:46+02:00</time>
      </trkpt>
      <trkpt lat="43.45581" lon="3.76512">
        <ele>38</ele>
        <time>2022-10-17T14:56:05+02:00</time>
      </trkpt>
      <trkpt lat="43.45558" lon="3.76508">
        <ele>35</ele>
        <time>2022-10-17T14:56:23+02:00</time>
      </trkpt>
      <trkpt lat="43.45535" lon="3.76504">
        <ele>36</ele>
        <time>2022-10-17T14:56:43+02:00</time>
      </trkpt>
      <trkpt lat="43.45513" lon="3.76499">
        <ele>35</ele>
        <time>2022-10-17T14:57:06+02:00</time>
      </trkpt>
      <trkpt lat="43.45489" lon="3.76494">
        <ele>36</ele>
        <time>2022-10-17T14:57:23+02:00</time>
      </trkpt>
      <trkpt lat="43.45467" lon="3.76493">
        <ele>36</ele>
        <time>2022-10-17T14:57:41+02:00</time>
      </trkpt>
      <trkpt lat="43.45444" lon="3.76493">
        <ele>36</ele>
        <time>2022-10-17T14:58:00+02:00</time>
      </trkpt>
      <trkpt lat="43.45421" lon="3.76494">
        <ele>36</ele>
        <time>2022-10-17T14:58:20+02:00</time>
      </trkpt>
      <trkpt lat="43.45398" lon="3.76498">
        <ele>32</ele>
        <time>2022-10-17T14:58:41+02:00</time>
      </trkpt>
      <trkpt lat="43.45376" lon="3.76488">
        <ele>25</ele>
        <time>2022-10-17T14:58:59+02:00</time>
      </trkpt>
      <trkpt lat="43.45354" lon="3.76481">
        <ele>29</ele>
        <time>2022-10-17T14:59:18+02:00</time>
      </trkpt>
      <trkpt lat="43.45332" lon="3.7647">
        <ele>32</ele>
        <time>2022-10-17T14:59:36+02:00</time>
      </trkpt>
      <trkpt lat="43.4531" lon="3.76461">
        <ele>33</ele>
        <time>2022-10-17T14:59:54+02:00</time>
      </trkpt>
      <trkpt lat="43.45288" lon="3.76451">
        <ele>34</ele>
        <time>2022-10-17T15:00:12+02:00</time>
      </trkpt>
      <trkpt lat="43.45268" lon="3.76435">
        <ele>33</ele>
        <time>2022-10-17T15:00:31+02:00</time>
      </trkpt>
      <trkpt lat="43.4525" lon="3.76416">
        <ele>34</ele>
        <time>2022-10-17T15:00:51+02:00</time>
      </trkpt>
      <trkpt lat="43.45231" lon="3.76396">
        <ele>37</ele>
        <time>2022-10-17T15:01:11+02:00</time>
      </trkpt>
      <trkpt lat="43.45213" lon="3.76377">
        <ele>40</ele>
        <time>2022-10-17T15:01:29+02:00</time>
      </trkpt>
      <trkpt lat="43.45194" lon="3.7636">
        <ele>39</ele>
        <time>2022-10-17T15:01:47+02:00</time>
      </trkpt>
      <trkpt lat="43.45178" lon="3.76336">
        <ele>40</ele>
        <time>2022-10-17T15:02:09+02:00</time>
      </trkpt>
      <trkpt lat="43.4516" lon="3.76316">
        <ele>38</ele>
        <time>2022-10-17T15:02:29+02:00</time>
      </trkpt>
      <trkpt lat="43.45142" lon="3.76294">
        <ele>38</ele>
        <time>2022-10-17T15:02:49+02:00</time>
      </trkpt>
      <trkpt lat="43.45124" lon="3.76274">
        <ele>37</ele>
        <time>2022-10-17T15:03:06+02:00</time>
      </trkpt>
      <trkpt lat="43.45106" lon="3.76255">
        <ele>37</ele>
        <time>2022-10-17T15:03:27+02:00</time>
      </trkpt>
      <trkpt lat="43.45089" lon="3.76233">
        <ele>35</ele>
        <time>2022-10-17T15:03:48+02:00</time>
      </trkpt>
      <trkpt lat="43.45069" lon="3.76215">
        <ele>36</ele>
        <time>2022-10-17T15:04:06+02:00</time>
      </trkpt>
      <trkpt lat="43.45053" lon="3.76191">
        <ele>37</ele>
        <time>2022-10-17T15:04:22+02:00</time>
      </trkpt>
      <trkpt lat="43.45034" lon="3.7617">
        <ele>36</ele>
        <time>2022-10-17T15:04:44+02:00</time>
      </trkpt>
      <trkpt lat="43.45017" lon="3.76148">
        <ele>35</ele>
        <time>2022-10-17T15:05:07+02:00</time>
      </trkpt>
      <trkpt lat="43.45011" lon="3.76118">
        <ele>33</ele>
        <time>2022-10-17T15:05:24+02:00</time>
      </trkpt>
      <trkpt lat="43.45022" lon="3.76091">
        <ele>33</ele>
        <time>2022-10-17T15:05:43+02:00</time>
      </trkpt>
      <trkpt lat="43.45007" lon="3.76067">
        <ele>33</ele>
        <time>2022-10-17T15:06:10+02:00</time>
      </trkpt>
      <trkpt lat="43.44986" lon="3.76055">
        <ele>34</ele>
        <time>2022-10-17T15:06:29+02:00</time>
      </trkpt>
      <trkpt lat="43.44964" lon="3.76045">
        <ele>34</ele>
        <time>2022-10-17T15:06:48+02:00</time>
      </trkpt>
      <trkpt lat="43.44942" lon="3.76037">
        <ele>29</ele>
        <time>2022-10-17T15:07:08+02:00</time>
      </trkpt>
      <trkpt lat="43.44919" lon="3.76033">
        <ele>29</ele>
        <time>2022-10-17T15:07:29+02:00</time>
      </trkpt>
      <trkpt lat="43.44898" lon="3.76024">
        <ele>27</ele>
        <time>2022-10-17T15:07:48+02:00</time>
      </trkpt>
      <trkpt lat="43.44875" lon="3.76017">
        <ele>29</ele>
        <time>2022-10-17T15:08:06+02:00</time>
      </trkpt>
      <trkpt lat="43.44853" lon="3.76012">
        <ele>31</ele>
        <time>2022-10-17T15:08:25+02:00</time>
      </trkpt>
      <trkpt lat="43.4483" lon="3.76005">
        <ele>31</ele>
        <time>2022-10-17T15:08:46+02:00</time>
      </trkpt>
      <trkpt lat="43.44808" lon="3.76">
        <ele>30</ele>
        <time>2022-10-17T15:09:06+02:00</time>
      </trkpt>
      <trkpt lat="43.44786" lon="3.7599">
        <ele>30</ele>
        <time>2022-10-17T15:09:24+02:00</time>
      </trkpt>
      <trkpt lat="43.44764" lon="3.75985">
        <ele>29</ele>
        <time>2022-10-17T15:09:42+02:00</time>
      </trkpt>
      <trkpt lat="43.44741" lon="3.75977">
        <ele>30</ele>
        <time>2022-10-17T15:10:01+02:00</time>
      </trkpt>
      <trkpt lat="43.44719" lon="3.75966">
        <ele>31</ele>
        <time>2022-10-17T15:10:22+02:00</time>
      </trkpt>
      <trkpt lat="43.44696" lon="3.75963">
        <ele>28</ele>
        <time>2022-10-17T15:10:43+02:00</time>
      </trkpt>
      <trkpt lat="43.44673" lon="3.75966">
        <ele>27</ele>
        <time>2022-10-17T15:11:02+02:00</time>
      </trkpt>
      <trkpt lat="43.44651" lon="3.75959">
        <ele>26</ele>
        <time>2022-10-17T15:11:21+02:00</time>
      </trkpt>
      <trkpt lat="43.44627" lon="3.75956">
        <ele>24</ele>
        <time>2022-10-17T15:11:41+02:00</time>
      </trkpt>
      <trkpt lat="43.44604" lon="3.75949">
        <ele>26</ele>
        <time>2022-10-17T15:12:01+02:00</time>
      </trkpt>
      <trkpt lat="43.44581" lon="3.75943">
        <ele>27</ele>
        <time>2022-10-17T15:12:16+02:00</time>
      </trkpt>
      <trkpt lat="43.44559" lon="3.75937">
        <ele>39</ele>
        <time>2022-10-17T15:12:31+02:00</time>
      </trkpt>
    </trkseg>
  </trk>
</gpx>